sensor_id;sensor_type;location;lat;lon;timestamp;pressure;altitude;pressure_sealevel;temperature;humidity
69239;BME280;56349;51.816;-0.026;2023-02-23T00:00:31;100860.64;;;24.48;31.65
69239;BME280;56349;51.816;-0.026;2023-02-23T00:02:58;100858.80;;;24.52;31.85
69239;BME280;56349;51.816;-0.026;2023-02-23T00:05:22;100863.18;;;24.53;32.08
69239;BME280;56349;51.816;-0.026;2023-02-23T00:07:48;100860.01;;;24.32;32.33
69239;BME280;56349;51.816;-0.026;2023-02-23T00:10:14;100854.25;;;24.12;32.55
69239;BME280;56349;51.816;-0.026;2023-02-23T00:12:39;100852.51;;;23.93;32.76
69239;BME280;56349;51.816;-0.026;2023-02-23T00:15:05;100853.55;;;23.74;32.96
69239;BME280;56349;51.816;-0.026;2023-02-23T00:17:30;100851.16;;;23.81;33.19
69239;BME280;56349;51.816;-0.026;2023-02-23T00:19:56;100854.59;;;23.86;33.39
69239;BME280;56349;51.816;-0.026;2023-02-23T00:22:23;100864.84;;;23.71;33.58
69239;BME280;56349;51.816;-0.026;2023-02-23T00:24:47;100868.49;;;23.56;33.76
69239;BME280;56349;51.816;-0.026;2023-02-23T00:27:14;100873.02;;;23.44;33.91
69239;BME280;56349;51.816;-0.026;2023-02-23T00:29:40;100871.47;;;23.31;34.05
69239;BME280;56349;51.816;-0.026;2023-02-23T00:32:06;100868.97;;;23.17;34.22
69239;BME280;56349;51.816;-0.026;2023-02-23T00:34:31;100863.18;;;23.05;34.37
69239;BME280;56349;51.816;-0.026;2023-02-23T00:36:57;100860.80;;;22.91;34.52
69239;BME280;56349;51.816;-0.026;2023-02-23T00:39:23;100862.31;;;23.06;34.65
69239;BME280;56349;51.816;-0.026;2023-02-23T00:41:49;100865.19;;;22.66;34.79
69239;BME280;56349;51.816;-0.026;2023-02-23T00:44:14;100869.72;;;22.83;34.93
69239;BME280;56349;51.816;-0.026;2023-02-23T00:46:39;100871.70;;;22.45;35.07
69239;BME280;56349;51.816;-0.026;2023-02-23T00:49:04;100872.48;;;22.83;35.22
69239;BME280;56349;51.816;-0.026;2023-02-23T00:51:30;100874.70;;;22.71;35.33
69239;BME280;56349;51.816;-0.026;2023-02-23T00:53:56;100878.68;;;22.59;35.48
69239;BME280;56349;51.816;-0.026;2023-02-23T00:56:22;100878.94;;;22.26;35.65
69239;BME280;56349;51.816;-0.026;2023-02-23T00:58:47;100879.03;;;22.38;35.76
69239;BME280;56349;51.816;-0.026;2023-02-23T01:01:13;100878.49;;;22.29;35.85
69239;BME280;56349;51.816;-0.026;2023-02-23T01:03:40;100881.67;;;22.20;35.97
69239;BME280;56349;51.816;-0.026;2023-02-23T01:06:06;100881.62;;;22.12;36.08
69239;BME280;56349;51.816;-0.026;2023-02-23T01:08:30;100886.87;;;22.27;36.16
69239;BME280;56349;51.816;-0.026;2023-02-23T01:10:55;100887.05;;;21.97;36.26
69239;BME280;56349;51.816;-0.026;2023-02-23T01:13:22;100886.49;;;21.91;36.34
69239;BME280;56349;51.816;-0.026;2023-02-23T01:15:47;100882.82;;;21.86;36.42
69239;BME280;56349;51.816;-0.026;2023-02-23T01:18:12;100886.05;;;21.80;36.49
69239;BME280;56349;51.816;-0.026;2023-02-23T01:20:37;100883.97;;;21.71;36.58
69239;BME280;56349;51.816;-0.026;2023-02-23T01:23:04;100890.28;;;21.64;36.69
69239;BME280;56349;51.816;-0.026;2023-02-23T01:25:29;100890.50;;;21.56;36.78
69239;BME280;56349;51.816;-0.026;2023-02-23T01:27:54;100893.39;;;21.74;36.83
69239;BME280;56349;51.816;-0.026;2023-02-23T01:30:19;100897.06;;;21.44;36.92
69239;BME280;56349;51.816;-0.026;2023-02-23T01:32:44;100900.16;;;21.60;36.99
69239;BME280;56349;51.816;-0.026;2023-02-23T01:35:11;100900.94;;;21.79;37.07
69239;BME280;56349;51.816;-0.026;2023-02-23T01:37:36;100898.36;;;21.46;37.15
69239;BME280;56349;51.816;-0.026;2023-02-23T01:40:02;100900.24;;;21.69;37.20
69239;BME280;56349;51.816;-0.026;2023-02-23T01:42:27;100897.28;;;21.15;37.23
69239;BME280;56349;51.816;-0.026;2023-02-23T01:47:19;100902.02;;;21.53;37.35
69239;BME280;56349;51.816;-0.026;2023-02-23T01:49:45;100902.23;;;21.20;37.43
69239;BME280;56349;51.816;-0.026;2023-02-23T01:52:13;100904.83;;;21.15;37.50
69239;BME280;56349;51.816;-0.026;2023-02-23T01:54:38;100905.32;;;21.36;37.55
69239;BME280;56349;51.816;-0.026;2023-02-23T01:57:03;100903.74;;;21.30;37.59
69239;BME280;56349;51.816;-0.026;2023-02-23T01:59:31;100903.03;;;21.24;37.66
69239;BME280;56349;51.816;-0.026;2023-02-23T02:01:52;100902.87;;;20.93;37.72
69239;BME280;56349;51.816;-0.026;2023-02-23T02:04:17;100905.79;;;21.17;37.74
69239;BME280;56349;51.816;-0.026;2023-02-23T02:06:45;100906.62;;;21.13;37.78
69239;BME280;56349;51.816;-0.026;2023-02-23T02:09:14;100908.11;;;21.10;37.81
69239;BME280;56349;51.816;-0.026;2023-02-23T02:11:36;100909.32;;;20.59;37.84
69239;BME280;56349;51.816;-0.026;2023-02-23T02:14:03;100913.78;;;21.03;37.88
69239;BME280;56349;51.816;-0.026;2023-02-23T02:16:37;100916.89;;;21.00;37.90
69239;BME280;56349;51.816;-0.026;2023-02-23T02:19:09;100917.21;;;20.96;37.95
69239;BME280;56349;51.816;-0.026;2023-02-23T02:23:52;100919.01;;;20.89;38.02
69239;BME280;56349;51.816;-0.026;2023-02-23T02:26:17;100919.22;;;20.42;37.98
69239;BME280;56349;51.816;-0.026;2023-02-23T02:28:51;100918.24;;;20.87;38.00
69239;BME280;56349;51.816;-0.026;2023-02-23T02:31:11;100921.75;;;20.81;38.04
69239;BME280;56349;51.816;-0.026;2023-02-23T02:33:44;100920.10;;;20.77;38.09
69239;BME280;56349;51.816;-0.026;2023-02-23T02:36:06;100919.51;;;20.73;38.15
69239;BME280;56349;51.816;-0.026;2023-02-23T02:38:25;100919.49;;;20.71;38.14
69239;BME280;56349;51.816;-0.026;2023-02-23T02:40:47;100916.40;;;20.69;38.16
69239;BME280;56349;51.816;-0.026;2023-02-23T02:43:14;100915.46;;;20.64;38.19
69239;BME280;56349;51.816;-0.026;2023-02-23T02:45:39;100913.12;;;20.58;38.26
69239;BME280;56349;51.816;-0.026;2023-02-23T02:48:05;100915.99;;;20.56;38.28
69239;BME280;56349;51.816;-0.026;2023-02-23T02:50:38;100918.78;;;20.54;38.28
69239;BME280;56349;51.816;-0.026;2023-02-23T02:52:55;100918.94;;;20.74;38.30
69239;BME280;56349;51.816;-0.026;2023-02-23T02:55:16;100921.81;;;20.48;38.32
69239;BME280;56349;51.816;-0.026;2023-02-23T02:57:40;100917.57;;;20.43;38.35
69239;BME280;56349;51.816;-0.026;2023-02-23T03:00:06;100915.66;;;20.40;38.38
69239;BME280;56349;51.816;-0.026;2023-02-23T03:02:32;100915.87;;;20.58;38.42
69239;BME280;56349;51.816;-0.026;2023-02-23T03:04:56;100915.48;;;20.33;38.44
69239;BME280;56349;51.816;-0.026;2023-02-23T03:07:37;100914.93;;;20.54;38.44
69239;BME280;56349;51.816;-0.026;2023-02-23T03:09:54;100914.78;;;20.52;38.44
69239;BME280;56349;51.816;-0.026;2023-02-23T03:12:22;100914.59;;;20.49;38.46
69239;BME280;56349;51.816;-0.026;2023-02-23T03:14:43;100915.14;;;20.46;38.48
69239;BME280;56349;51.816;-0.026;2023-02-23T03:17:11;100911.56;;;20.20;38.50
69239;BME280;56349;51.816;-0.026;2023-02-23T03:19:33;100914.85;;;20.19;38.50
69239;BME280;56349;51.816;-0.026;2023-02-23T03:22:02;100913.88;;;20.38;38.50
69239;BME280;56349;51.816;-0.026;2023-02-23T03:24:26;100913.60;;;20.14;38.52
69239;BME280;56349;51.816;-0.026;2023-02-23T03:26:51;100913.07;;;20.33;38.53
69239;BME280;56349;51.816;-0.026;2023-02-23T03:29:15;100911.61;;;20.53;38.55
69239;BME280;56349;51.816;-0.026;2023-02-23T03:31:41;100912.69;;;20.08;38.54
69239;BME280;56349;51.816;-0.026;2023-02-23T03:34:08;100914.27;;;20.28;38.54
69239;BME280;56349;51.816;-0.026;2023-02-23T03:36:32;100919.14;;;20.25;38.57
69239;BME280;56349;51.816;-0.026;2023-02-23T03:38:57;100921.56;;;20.01;38.58
69239;BME280;56349;51.816;-0.026;2023-02-23T03:41:20;100925.79;;;20.00;38.58
69239;BME280;56349;51.816;-0.026;2023-02-23T03:43:48;100927.26;;;20.41;38.61
69239;BME280;56349;51.816;-0.026;2023-02-23T03:46:12;100929.68;;;20.35;38.63
69239;BME280;56349;51.816;-0.026;2023-02-23T03:48:37;100931.67;;;19.88;38.65
69239;BME280;56349;51.816;-0.026;2023-02-23T03:51:05;100935.60;;;19.86;38.65
69239;BME280;56349;51.816;-0.026;2023-02-23T03:53:31;100935.22;;;20.06;38.66
69239;BME280;56349;51.816;-0.026;2023-02-23T03:55:55;100936.16;;;20.26;38.67
69239;BME280;56349;51.816;-0.026;2023-02-23T03:58:23;100939.14;;;20.03;38.67
69239;BME280;56349;51.816;-0.026;2023-02-23T04:00:47;100941.03;;;20.24;38.67
69239;BME280;56349;51.816;-0.026;2023-02-23T04:03:11;100939.26;;;20.00;38.67
69239;BME280;56349;51.816;-0.026;2023-02-23T04:05:38;100937.20;;;19.76;38.67
69239;BME280;56349;51.816;-0.026;2023-02-23T04:08:02;100939.38;;;19.74;38.69
69239;BME280;56349;51.816;-0.026;2023-02-23T04:10:28;100940.99;;;19.96;38.66
69239;BME280;56349;51.816;-0.026;2023-02-23T04:13:00;100942.80;;;19.94;38.67
69239;BME280;56349;51.816;-0.026;2023-02-23T04:15:24;100946.56;;;20.13;38.70
69239;BME280;56349;51.816;-0.026;2023-02-23T04:17:45;100945.47;;;19.67;38.70
69239;BME280;56349;51.816;-0.026;2023-02-23T04:20:12;100946.71;;;19.89;38.68
69239;BME280;56349;51.816;-0.026;2023-02-23T04:22:36;100947.16;;;19.88;38.68
69239;BME280;56349;51.816;-0.026;2023-02-23T04:25:03;100950.24;;;19.84;38.70
69239;BME280;56349;51.816;-0.026;2023-02-23T04:27:28;100949.31;;;20.03;38.72
69239;BME280;56349;51.816;-0.026;2023-02-23T04:29:54;100953.21;;;20.00;38.78
69239;BME280;56349;51.816;-0.026;2023-02-23T04:32:20;100956.60;;;19.78;38.88
69239;BME280;56349;51.816;-0.026;2023-02-23T04:34:46;100957.57;;;20.05;38.97
69239;BME280;56349;51.816;-0.026;2023-02-23T04:37:13;100959.82;;;19.93;39.00
69239;BME280;56349;51.816;-0.026;2023-02-23T04:39:38;100960.60;;;20.32;38.87
69239;BME280;56349;51.816;-0.026;2023-02-23T04:42:03;100962.99;;;20.10;38.72
69239;BME280;56349;51.816;-0.026;2023-02-23T04:44:28;100964.44;;;20.35;38.47
69239;BME280;56349;51.816;-0.026;2023-02-23T04:46:56;100967.90;;;20.36;38.17
69239;BME280;56349;51.816;-0.026;2023-02-23T04:49:19;100966.17;;;20.88;37.80
69239;BME280;56349;51.816;-0.026;2023-02-23T04:51:45;100963.80;;;20.84;37.44
69239;BME280;56349;51.816;-0.026;2023-02-23T04:54:11;100967.03;;;20.99;37.13
69239;BME280;56349;51.816;-0.026;2023-02-23T04:56:37;100971.33;;;20.89;36.86
69239;BME280;56349;51.816;-0.026;2023-02-23T04:59:03;100972.25;;;21.17;36.67
69239;BME280;56349;51.816;-0.026;2023-02-23T05:01:29;100974.83;;;21.19;36.51
69239;BME280;56349;51.816;-0.026;2023-02-23T05:03:55;100974.69;;;21.18;36.42
69239;BME280;56349;51.816;-0.026;2023-02-23T05:06:21;100976.72;;;21.17;36.36
69239;BME280;56349;51.816;-0.026;2023-02-23T05:08:47;100976.24;;;21.12;36.41
69239;BME280;56349;51.816;-0.026;2023-02-23T05:11:13;100976.14;;;21.34;36.50
69239;BME280;56349;51.816;-0.026;2023-02-23T05:13:39;100977.59;;;21.02;36.62
69239;BME280;56349;51.816;-0.026;2023-02-23T05:16:06;100980.35;;;20.97;36.80
69239;BME280;56349;51.816;-0.026;2023-02-23T05:18:31;100987.17;;;20.92;36.99
69239;BME280;56349;51.816;-0.026;2023-02-23T05:21:01;100980.85;;;21.16;37.19
69239;BME280;56349;51.816;-0.026;2023-02-23T05:23:22;100981.33;;;21.13;37.41
69239;BME280;56349;51.816;-0.026;2023-02-23T05:25:48;100984.03;;;21.13;37.58
69239;BME280;56349;51.816;-0.026;2023-02-23T05:28:14;100980.58;;;21.13;37.76
69239;BME280;56349;51.816;-0.026;2023-02-23T05:30:40;100977.83;;;21.12;37.94
69239;BME280;56349;51.816;-0.026;2023-02-23T05:33:06;100979.09;;;20.85;38.12
69239;BME280;56349;51.816;-0.026;2023-02-23T05:35:32;100980.78;;;20.84;38.28
69239;BME280;56349;51.816;-0.026;2023-02-23T05:37:58;100978.53;;;20.85;38.40
69239;BME280;56349;51.816;-0.026;2023-02-23T05:40:24;100977.01;;;21.14;38.51
69239;BME280;56349;51.816;-0.026;2023-02-23T05:42:50;100981.87;;;21.16;38.61
69239;BME280;56349;51.816;-0.026;2023-02-23T05:45:16;100982.96;;;21.17;38.69
69239;BME280;56349;51.816;-0.026;2023-02-23T05:47:43;100982.66;;;21.19;38.79
69239;BME280;56349;51.816;-0.026;2023-02-23T05:50:09;100986.08;;;21.21;38.85
69239;BME280;56349;51.816;-0.026;2023-02-23T05:52:36;100986.71;;;21.24;38.92
69239;BME280;56349;51.816;-0.026;2023-02-23T05:54:59;100991.12;;;21.26;38.96
69239;BME280;56349;51.816;-0.026;2023-02-23T05:57:24;100993.97;;;21.29;38.99
69239;BME280;56349;51.816;-0.026;2023-02-23T05:59:50;100999.39;;;21.05;39.04
69239;BME280;56349;51.816;-0.026;2023-02-23T06:02:16;101008.64;;;21.34;39.06
69239;BME280;56349;51.816;-0.026;2023-02-23T06:04:42;101007.46;;;21.09;39.07
69239;BME280;56349;51.816;-0.026;2023-02-23T06:07:08;101004.16;;;21.10;39.12
69239;BME280;56349;51.816;-0.026;2023-02-23T06:09:34;101008.80;;;21.12;39.14
69239;BME280;56349;51.816;-0.026;2023-02-23T06:11:59;101014.89;;;21.15;39.15
69239;BME280;56349;51.816;-0.026;2023-02-23T06:14:25;101016.72;;;21.19;39.12
69239;BME280;56349;51.816;-0.026;2023-02-23T06:16:51;101014.19;;;21.47;39.14
69239;BME280;56349;51.816;-0.026;2023-02-23T06:19:17;101018.04;;;21.24;39.09
69239;BME280;56349;51.816;-0.026;2023-02-23T06:21:42;101023.15;;;21.29;39.08
69239;BME280;56349;51.816;-0.026;2023-02-23T06:24:08;101035.42;;;21.58;39.07
69239;BME280;56349;51.816;-0.026;2023-02-23T06:26:33;101040.00;;;21.60;39.07
69239;BME280;56349;51.816;-0.026;2023-02-23T06:28:59;101042.76;;;21.62;39.02
69239;BME280;56349;51.816;-0.026;2023-02-23T06:31:25;101048.93;;;21.62;38.98
69239;BME280;56349;51.816;-0.026;2023-02-23T06:33:52;101052.97;;;21.36;38.92
69239;BME280;56349;51.816;-0.026;2023-02-23T06:36:16;101057.66;;;21.63;38.87
69239;BME280;56349;51.816;-0.026;2023-02-23T06:38:42;101058.19;;;21.14;38.77
69239;BME280;56349;51.816;-0.026;2023-02-23T06:41:08;101060.82;;;21.36;38.69
69239;BME280;56349;51.816;-0.026;2023-02-23T06:43:33;101066.52;;;21.14;38.61
69239;BME280;56349;51.816;-0.026;2023-02-23T06:45:59;101069.71;;;21.34;38.53
69239;BME280;56349;51.816;-0.026;2023-02-23T06:48:25;101072.75;;;21.59;38.46
69239;BME280;56349;51.816;-0.026;2023-02-23T06:50:51;101074.44;;;21.56;38.40
69239;BME280;56349;51.816;-0.026;2023-02-23T06:53:17;101078.48;;;21.56;38.33
69239;BME280;56349;51.816;-0.026;2023-02-23T06:55:41;101083.12;;;21.29;38.23
69239;BME280;56349;51.816;-0.026;2023-02-23T06:58:07;101086.78;;;21.04;38.18
69239;BME280;56349;51.816;-0.026;2023-02-23T07:00:33;101091.69;;;21.23;38.13
69239;BME280;56349;51.816;-0.026;2023-02-23T07:02:59;101097.25;;;21.46;38.09
69239;BME280;56349;51.816;-0.026;2023-02-23T07:05:25;101100.16;;;21.42;38.06
69239;BME280;56349;51.816;-0.026;2023-02-23T07:07:51;101104.37;;;21.39;38.02
69239;BME280;56349;51.816;-0.026;2023-02-23T07:10:17;101114.47;;;21.35;37.99
69239;BME280;56349;51.816;-0.026;2023-02-23T07:12:43;101124.75;;;21.29;37.98
69239;BME280;56349;51.816;-0.026;2023-02-23T07:15:11;101133.41;;;20.98;37.97
69239;BME280;56349;51.816;-0.026;2023-02-23T07:17:34;101139.62;;;21.22;37.96
69239;BME280;56349;51.816;-0.026;2023-02-23T07:20:00;101148.07;;;21.21;37.92
69239;BME280;56349;51.816;-0.026;2023-02-23T07:22:24;101152.00;;;21.22;37.88
69239;BME280;56349;51.816;-0.026;2023-02-23T07:24:51;101154.26;;;21.26;37.91
69239;BME280;56349;51.816;-0.026;2023-02-23T07:27:17;101155.11;;;21.07;37.97
69239;BME280;56349;51.816;-0.026;2023-02-23T07:29:43;101161.59;;;21.16;38.03
69239;BME280;56349;51.816;-0.026;2023-02-23T07:32:09;101165.07;;;21.33;38.07
69239;BME280;56349;51.816;-0.026;2023-02-23T07:34:34;101166.83;;;21.36;37.94
69239;BME280;56349;51.816;-0.026;2023-02-23T07:37:00;101168.53;;;21.67;37.75
69239;BME280;56349;51.816;-0.026;2023-02-23T07:39:25;101173.47;;;22.01;37.56
69239;BME280;56349;51.816;-0.026;2023-02-23T07:41:51;101170.77;;;22.36;37.24
69239;BME280;56349;51.816;-0.026;2023-02-23T07:44:18;101170.34;;;22.24;36.90
69239;BME280;56349;51.816;-0.026;2023-02-23T07:46:43;101167.24;;;22.62;36.49
69239;BME280;56349;51.816;-0.026;2023-02-23T07:49:09;101172.94;;;22.99;36.11
69239;BME280;56349;51.816;-0.026;2023-02-23T07:51:36;101178.72;;;23.35;35.73
69239;BME280;56349;51.816;-0.026;2023-02-23T07:54:02;101189.20;;;23.47;35.37
69239;BME280;56349;51.816;-0.026;2023-02-23T07:56:27;101191.52;;;23.79;34.97
69239;BME280;56349;51.816;-0.026;2023-02-23T07:58:52;101195.60;;;23.84;34.58
69239;BME280;56349;51.816;-0.026;2023-02-23T08:01:18;101202.56;;;24.16;34.20
69239;BME280;56349;51.816;-0.026;2023-02-23T08:03:44;101200.73;;;24.45;33.84
69239;BME280;56349;51.816;-0.026;2023-02-23T08:06:10;101205.80;;;24.52;33.49
69239;BME280;56349;51.816;-0.026;2023-02-23T08:08:36;101201.57;;;24.54;33.16
69239;BME280;56349;51.816;-0.026;2023-02-23T08:11:03;101205.93;;;24.79;32.84
69239;BME280;56349;51.816;-0.026;2023-02-23T08:13:29;101207.90;;;25.00;32.54
69239;BME280;56349;51.816;-0.026;2023-02-23T08:15:54;101215.23;;;24.94;32.27
69239;BME280;56349;51.816;-0.026;2023-02-23T08:18:20;101217.85;;;25.11;32.02
69239;BME280;56349;51.816;-0.026;2023-02-23T08:20:46;101221.30;;;25.29;31.77
69239;BME280;56349;51.816;-0.026;2023-02-23T08:23:11;101224.73;;;25.25;31.53
69239;BME280;56349;51.816;-0.026;2023-02-23T08:25:37;101227.82;;;25.43;31.29
69239;BME280;56349;51.816;-0.026;2023-02-23T08:28:04;101234.10;;;25.56;31.06
69239;BME280;56349;51.816;-0.026;2023-02-23T08:30:29;101228.54;;;25.65;30.88
69239;BME280;56349;51.816;-0.026;2023-02-23T08:32:54;101227.67;;;25.74;30.69
69239;BME280;56349;51.816;-0.026;2023-02-23T08:35:20;101238.20;;;25.60;30.51
69239;BME280;56349;51.816;-0.026;2023-02-23T08:37:46;101245.73;;;25.67;30.33
69239;BME280;56349;51.816;-0.026;2023-02-23T08:40:13;101249.44;;;25.95;30.17
69239;BME280;56349;51.816;-0.026;2023-02-23T08:42:37;101248.77;;;25.53;30.04
69239;BME280;56349;51.816;-0.026;2023-02-23T08:45:04;101249.78;;;25.87;29.87
69239;BME280;56349;51.816;-0.026;2023-02-23T08:47:29;101247.87;;;25.68;29.72
69239;BME280;56349;51.816;-0.026;2023-02-23T08:49:55;101247.03;;;25.73;29.59
69239;BME280;56349;51.816;-0.026;2023-02-23T08:52:21;101247.17;;;25.84;29.54
69239;BME280;56349;51.816;-0.026;2023-02-23T08:54:46;101248.27;;;25.94;29.43
69239;BME280;56349;51.816;-0.026;2023-02-23T08:57:12;101252.76;;;26.06;29.30
69239;BME280;56349;51.816;-0.026;2023-02-23T08:59:39;101258.16;;;26.13;29.18
69239;BME280;56349;51.816;-0.026;2023-02-23T09:02:04;101252.66;;;26.21;29.03
69239;BME280;56349;51.816;-0.026;2023-02-23T09:04:30;101259.31;;;26.30;28.88
69239;BME280;56349;51.816;-0.026;2023-02-23T09:06:55;101259.16;;;26.34;28.75
69239;BME280;56349;51.816;-0.026;2023-02-23T09:09:21;101256.57;;;26.34;28.62
69239;BME280;56349;51.816;-0.026;2023-02-23T09:11:47;101253.28;;;26.32;28.54
69239;BME280;56349;51.816;-0.026;2023-02-23T09:14:13;101252.08;;;26.34;28.38
69239;BME280;56349;51.816;-0.026;2023-02-23T09:16:39;101252.00;;;26.35;28.24
69239;BME280;56349;51.816;-0.026;2023-02-23T09:19:05;101253.33;;;26.35;28.23
69239;BME280;56349;51.816;-0.026;2023-02-23T09:21:31;101257.60;;;26.38;28.26
69239;BME280;56349;51.816;-0.026;2023-02-23T09:23:57;101256.42;;;26.40;28.29
69239;BME280;56349;51.816;-0.026;2023-02-23T09:26:23;101256.27;;;26.43;28.27
69239;BME280;56349;51.816;-0.026;2023-02-23T09:28:50;101256.68;;;26.71;28.25
69239;BME280;56349;51.816;-0.026;2023-02-23T09:31:17;101260.81;;;26.42;28.23
69239;BME280;56349;51.816;-0.026;2023-02-23T09:33:41;101261.21;;;26.61;27.96
69239;BME280;56349;51.816;-0.026;2023-02-23T09:36:07;101265.03;;;26.91;27.60
69239;BME280;56349;51.816;-0.026;2023-02-23T09:38:34;101262.27;;;27.05;27.28
69239;BME280;56349;51.816;-0.026;2023-02-23T09:40:58;101277.39;;;27.05;27.11
69239;BME280;56349;51.816;-0.026;2023-02-23T09:43:29;101281.24;;;26.75;27.10
69239;BME280;56349;51.816;-0.026;2023-02-23T09:45:51;101291.89;;;26.86;27.14
69239;BME280;56349;51.816;-0.026;2023-02-23T09:48:16;101292.85;;;26.78;27.20
69239;BME280;56349;51.816;-0.026;2023-02-23T09:50:41;101288.12;;;26.70;27.28
69239;BME280;56349;51.816;-0.026;2023-02-23T09:53:12;101282.69;;;26.64;27.32
69239;BME280;56349;51.816;-0.026;2023-02-23T09:55:29;101276.91;;;26.57;27.39
69239;BME280;56349;51.816;-0.026;2023-02-23T09:57:58;101277.89;;;26.54;27.43
69239;BME280;56349;51.816;-0.026;2023-02-23T10:00:22;101282.05;;;26.79;27.45
69239;BME280;56349;51.816;-0.026;2023-02-23T10:02:54;101285.72;;;26.52;27.45
69239;BME280;56349;51.816;-0.026;2023-02-23T10:05:12;101283.98;;;26.53;27.45
69239;BME280;56349;51.816;-0.026;2023-02-23T10:07:42;101285.26;;;26.54;27.44
69239;BME280;56349;51.816;-0.026;2023-02-23T10:10:11;101285.25;;;26.54;27.43
69239;BME280;56349;51.816;-0.026;2023-02-23T10:12:34;101287.79;;;26.57;27.40
69239;BME280;56349;51.816;-0.026;2023-02-23T10:15:07;101287.61;;;26.62;27.35
69239;BME280;56349;51.816;-0.026;2023-02-23T10:17:24;101287.90;;;26.66;27.30
69239;BME280;56349;51.816;-0.026;2023-02-23T10:19:50;101295.08;;;26.68;27.27
69239;BME280;56349;51.816;-0.026;2023-02-23T10:22:11;101297.18;;;26.70;27.26
69239;BME280;56349;51.816;-0.026;2023-02-23T10:24:38;101300.64;;;26.73;27.21
69239;BME280;56349;51.816;-0.026;2023-02-23T10:27:06;101303.71;;;26.79;27.14
69239;BME280;56349;51.816;-0.026;2023-02-23T10:29:29;101304.95;;;26.82;27.10
69239;BME280;56349;51.816;-0.026;2023-02-23T10:31:56;101305.97;;;26.83;27.07
69239;BME280;56349;51.816;-0.026;2023-02-23T10:34:18;101311.42;;;26.83;27.03
69239;BME280;56349;51.816;-0.026;2023-02-23T10:36:50;101314.81;;;26.83;26.98
69239;BME280;56349;51.816;-0.026;2023-02-23T10:39:11;101316.03;;;26.83;27.02
69239;BME280;56349;51.816;-0.026;2023-02-23T10:41:36;101313.38;;;27.10;27.00
69239;BME280;56349;51.816;-0.026;2023-02-23T10:44:11;101310.89;;;26.83;26.99
69239;BME280;56349;51.816;-0.026;2023-02-23T10:46:31;101313.16;;;26.81;27.20
69239;BME280;56349;51.816;-0.026;2023-02-23T10:48:53;101318.66;;;26.83;27.20
69239;BME280;56349;51.816;-0.026;2023-02-23T10:51:23;101320.71;;;27.13;27.25
69239;BME280;56349;51.816;-0.026;2023-02-23T10:53:43;101319.86;;;26.87;27.28
69239;BME280;56349;51.816;-0.026;2023-02-23T10:56:11;101332.71;;;26.85;27.31
69239;BME280;56349;51.816;-0.026;2023-02-23T10:58:40;101333.48;;;26.79;27.48
69239;BME280;56349;51.816;-0.026;2023-02-23T11:01:03;101334.24;;;26.75;27.38
69239;BME280;56349;51.816;-0.026;2023-02-23T11:03:29;101331.78;;;26.70;27.30
69239;BME280;56349;51.816;-0.026;2023-02-23T11:05:51;101336.77;;;26.60;27.24
69239;BME280;56349;51.816;-0.026;2023-02-23T11:08:21;101336.93;;;26.82;27.16
69239;BME280;56349;51.816;-0.026;2023-02-23T11:15:35;101339.98;;;26.22;27.04
69239;BME280;56349;51.816;-0.026;2023-02-23T11:18:02;101343.92;;;26.17;27.19
69239;BME280;56349;51.816;-0.026;2023-02-23T11:20:30;101338.05;;;25.66;27.45
69239;BME280;56349;51.816;-0.026;2023-02-23T11:22:52;101335.08;;;25.57;27.62
69239;BME280;56349;51.816;-0.026;2023-02-23T11:25:24;101340.37;;;25.44;27.88
69239;BME280;56349;51.816;-0.026;2023-02-23T11:27:46;101340.89;;;25.13;28.10
69239;BME280;56349;51.816;-0.026;2023-02-23T11:30:11;101346.37;;;25.10;28.36
69239;BME280;56349;51.816;-0.026;2023-02-23T11:32:35;101347.17;;;24.83;28.70
69239;BME280;56349;51.816;-0.026;2023-02-23T11:37:30;101343.24;;;24.31;29.13
69239;BME280;56349;51.816;-0.026;2023-02-23T11:39:55;101345.46;;;24.08;29.29
69239;BME280;56349;51.816;-0.026;2023-02-23T11:42:20;101345.39;;;24.14;29.38
69239;BME280;56349;51.816;-0.026;2023-02-23T11:44:49;101345.55;;;23.73;29.53
69239;BME280;56349;51.816;-0.026;2023-02-23T11:47:15;101345.93;;;23.95;29.71
69239;BME280;56349;51.816;-0.026;2023-02-23T11:49:36;101343.79;;;23.73;29.89
69239;BME280;56349;51.816;-0.026;2023-02-23T11:52:00;101340.56;;;24.00;30.06
69239;BME280;56349;51.816;-0.026;2023-02-23T11:54:29;101350.22;;;23.56;30.26
69239;BME280;56349;51.816;-0.026;2023-02-23T11:56:51;101344.41;;;23.62;30.45
69239;BME280;56349;51.816;-0.026;2023-02-23T11:59:18;101350.15;;;23.00;30.58
69239;BME280;56349;51.816;-0.026;2023-02-23T12:01:42;101346.89;;;23.34;30.73
69239;BME280;56349;51.816;-0.026;2023-02-23T12:04:06;101346.50;;;23.20;30.84
69239;BME280;56349;51.816;-0.026;2023-02-23T12:06:35;101346.10;;;23.04;30.97
69239;BME280;56349;51.816;-0.026;2023-02-23T12:09:04;101347.73;;;22.94;31.05
69239;BME280;56349;51.816;-0.026;2023-02-23T12:11:30;101344.83;;;22.61;30.94
69239;BME280;56349;51.816;-0.026;2023-02-23T12:13:55;101345.22;;;22.76;30.77
69239;BME280;56349;51.816;-0.026;2023-02-23T12:16:18;101341.20;;;22.70;30.78
69239;BME280;56349;51.816;-0.026;2023-02-23T12:18:47;101341.21;;;22.61;31.09
69239;BME280;56349;51.816;-0.026;2023-02-23T12:21:15;101337.74;;;22.52;31.27
69239;BME280;56349;51.816;-0.026;2023-02-23T12:23:38;101337.18;;;22.66;31.39
69239;BME280;56349;51.816;-0.026;2023-02-23T12:33:32;101338.93;;;22.10;31.18
69239;BME280;56349;51.816;-0.026;2023-02-23T12:35:44;101338.23;;;22.03;31.19
69239;BME280;56349;51.816;-0.026;2023-02-23T12:38:16;101341.54;;;22.44;31.24
69239;BME280;56349;51.816;-0.026;2023-02-23T12:40:33;101339.14;;;22.08;31.42
69239;BME280;56349;51.816;-0.026;2023-02-23T12:43:01;101337.10;;;22.19;31.62
69239;BME280;56349;51.816;-0.026;2023-02-23T12:45:24;101339.53;;;22.13;31.68
69239;BME280;56349;51.816;-0.026;2023-02-23T12:47:51;101337.09;;;22.06;31.76
69239;BME280;56349;51.816;-0.026;2023-02-23T12:50:17;101334.79;;;21.97;31.85